createdAt,value
2023-01-19T00:00:49.930Z,89.25
2023-01-19T00:03:17.816Z,88.81
2023-01-19T00:05:45.005Z,89.47
2023-01-19T00:08:15.648Z,89.38
2023-01-19T00:10:44.480Z,89.52
2023-01-19T00:13:11.437Z,89.24
2023-01-19T00:15:38.209Z,89.37
2023-01-19T00:18:05.696Z,90.17
2023-01-19T00:20:32.806Z,90.13
2023-01-19T00:23:00.411Z,89.78
2023-01-19T00:25:28.596Z,90.81
2023-01-19T00:27:57.028Z,90.11
2023-01-19T00:30:23.639Z,90.21
2023-01-19T00:32:50.164Z,89.73
2023-01-19T00:35:16.895Z,90.29
2023-01-19T00:37:46.048Z,91.34
2023-01-19T00:40:13.935Z,90.74
2023-01-19T00:42:41.663Z,90.50
2023-01-19T00:45:13.374Z,90.11
2023-01-19T00:47:40.711Z,88.95
2023-01-19T00:50:11.797Z,88.74
2023-01-19T00:52:39.591Z,89.41
2023-01-19T00:55:07.268Z,87.92
2023-01-19T00:57:34.478Z,88.75
2023-01-19T01:00:01.714Z,87.87
2023-01-19T01:02:28.622Z,87.94
2023-01-19T01:04:56.649Z,88.57
2023-01-19T01:07:26.107Z,90.29
2023-01-19T01:09:52.910Z,89.97
2023-01-19T01:12:19.681Z,89.43
2023-01-19T01:14:46.198Z,88.41
2023-01-19T01:17:14.233Z,89.95
2023-01-19T01:19:41.583Z,89.68
2023-01-19T01:22:09.716Z,89.58
2023-01-19T01:24:36.548Z,89.34
2023-01-19T01:27:03.264Z,89.81
2023-01-19T01:29:30.554Z,88.90
2023-01-19T01:31:57.206Z,90.11
2023-01-19T01:34:23.996Z,90.06
2023-01-19T01:36:51.272Z,90.00
2023-01-19T01:39:18.597Z,90.77
2023-01-19T01:41:45.550Z,90.52
2023-01-19T01:44:50.259Z,90.83
2023-01-19T01:47:36.370Z,89.72
2023-01-19T01:50:14.995Z,90.06
2023-01-19T01:53:06.545Z,90.93
2023-01-19T01:55:46.040Z,90.72
2023-01-19T01:58:14.817Z,90.42
2023-01-19T02:01:00.946Z,91.52
2023-01-19T02:03:29.084Z,91.06
2023-01-19T02:05:59.484Z,90.64
2023-01-19T02:08:54.204Z,91.47
2023-01-19T02:11:39.561Z,90.42
2023-01-19T02:14:06.546Z,91.19
2023-01-19T02:16:34.828Z,91.11
2023-01-19T02:19:03.143Z,91.42
2023-01-19T02:21:38.310Z,91.32
2023-01-19T02:24:06.463Z,91.56
2023-01-19T02:26:42.666Z,91.93
2023-01-19T02:29:13.108Z,91.66
2023-01-19T02:31:40.939Z,91.84
2023-01-19T02:34:13.727Z,92.05
2023-01-19T02:36:52.128Z,92.29
2023-01-19T02:39:22.357Z,92.50
2023-01-19T02:41:54.625Z,91.90
2023-01-19T02:44:22.882Z,92.04
2023-01-19T02:46:49.505Z,91.79
2023-01-19T02:49:16.111Z,91.92
2023-01-19T02:51:43.947Z,91.05
2023-01-19T02:54:33.108Z,91.42
2023-01-19T02:57:17.903Z,91.14
2023-01-19T03:00:02.499Z,91.14
2023-01-19T03:02:54.536Z,92.02
2023-01-19T03:05:34.048Z,91.66
2023-01-19T03:08:17.251Z,90.76
2023-01-19T03:11:10.206Z,91.63
2023-01-19T03:13:43.620Z,90.42
2023-01-19T03:16:13.995Z,90.08
2023-01-19T03:18:45.227Z,89.63
2023-01-19T03:21:14.279Z,90.26
2023-01-19T03:23:44.652Z,89.85
2023-01-19T03:26:18.378Z,90.25
2023-01-19T03:28:47.368Z,90.86
2023-01-19T03:31:18.096Z,90.98
2023-01-19T03:33:50.405Z,91.13
2023-01-19T03:36:24.243Z,91.29
2023-01-19T03:38:53.271Z,92.17
2023-01-19T03:41:22.604Z,91.09
2023-01-19T03:43:51.950Z,92.21
2023-01-19T03:46:19.873Z,92.33
2023-01-19T03:48:47.750Z,90.73
2023-01-19T03:51:16.029Z,90.99
2023-01-19T03:53:42.995Z,91.23
2023-01-19T03:56:24.435Z,91.37
2023-01-19T03:58:51.866Z,91.16
2023-01-19T04:01:22.726Z,91.05
2023-01-19T04:03:50.410Z,91.39
2023-01-19T04:06:18.203Z,92.31
2023-01-19T04:08:44.853Z,91.58
2023-01-19T04:11:12.236Z,92.20
2023-01-19T04:13:39.096Z,92.34
2023-01-19T04:16:06.444Z,92.51
2023-01-19T04:18:34.878Z,91.59
2023-01-19T04:21:03.323Z,91.94
2023-01-19T04:23:30.111Z,92.37
2023-01-19T04:26:01.901Z,92.62
2023-01-19T04:28:28.852Z,92.54
2023-01-19T04:30:55.412Z,91.99
2023-01-19T04:33:22.421Z,92.14
2023-01-19T04:35:50.705Z,91.86
2023-01-19T04:38:19.689Z,91.11
2023-01-19T04:40:48.316Z,90.59
2023-01-19T04:43:15.185Z,90.98
2023-01-19T04:45:41.695Z,89.02
2023-01-19T04:48:08.202Z,89.72
2023-01-19T04:50:34.724Z,89.44
2023-01-19T04:53:02.482Z,88.75
2023-01-19T04:55:29.416Z,89.48
2023-01-19T04:57:56.653Z,89.14
2023-01-19T05:00:23.513Z,89.93
2023-01-19T05:02:49.974Z,88.99
2023-01-19T05:05:17.401Z,89.38
2023-01-19T05:07:44.444Z,90.51
2023-01-19T05:10:11.971Z,89.72
2023-01-19T05:12:38.953Z,89.18
2023-01-19T05:15:07.721Z,89.11
2023-01-19T05:17:34.955Z,87.97
2023-01-19T05:20:03.615Z,87.32
2023-01-19T05:22:32.124Z,86.93
2023-01-19T05:24:58.816Z,86.61
2023-01-19T05:27:25.641Z,86.24
2023-01-19T05:29:52.100Z,86.10
2023-01-19T05:32:19.207Z,85.94
2023-01-19T05:34:46.463Z,86.25
2023-01-19T05:37:13.875Z,85.94
2023-01-19T05:39:40.622Z,86.20
2023-01-19T05:42:07.369Z,87.11
2023-01-19T05:44:33.956Z,87.07
2023-01-19T05:47:00.712Z,88.08
2023-01-19T05:49:27.847Z,87.96
2023-01-19T05:51:54.316Z,87.37
2023-01-19T05:54:21.340Z,88.87
2023-01-19T05:56:47.877Z,87.24
2023-01-19T05:59:15.257Z,87.43
2023-01-19T06:01:42.004Z,87.79
2023-01-19T06:04:09.312Z,86.78
2023-01-19T06:06:35.920Z,86.39
2023-01-19T06:09:03.069Z,87.15
2023-01-19T06:11:29.643Z,86.95
2023-01-19T06:13:56.719Z,88.36
2023-01-19T06:16:23.261Z,87.98
2023-01-19T06:18:50.385Z,86.25
2023-01-19T06:21:16.991Z,86.38
2023-01-19T06:23:43.628Z,87.05
2023-01-19T06:26:10.770Z,85.90
2023-01-19T06:28:37.648Z,86.45
2023-01-19T06:31:04.915Z,86.56
2023-01-19T06:33:31.653Z,85.58
2023-01-19T06:35:58.120Z,85.88
2023-01-19T06:38:24.729Z,85.84
2023-01-19T06:40:58.487Z,87.22
2023-01-19T06:43:25.913Z,87.13
2023-01-19T06:45:52.930Z,86.69
2023-01-19T06:48:19.641Z,85.71
2023-01-19T06:50:47.570Z,87.62
2023-01-19T06:53:16.480Z,86.75
2023-01-19T06:55:44.096Z,87.82
2023-01-19T06:58:11.506Z,86.44
2023-01-19T07:00:38.469Z,86.13
2023-01-19T07:03:08.896Z,87.65
2023-01-19T07:05:36.406Z,87.83
2023-01-19T07:08:03.882Z,88.76
2023-01-19T07:11:26.879Z,89.25
2023-01-19T07:13:17.415Z,89.54
2023-01-19T07:15:44.155Z,90.33
2023-01-19T07:18:10.848Z,90.71
2023-01-19T07:20:38.063Z,90.35
2023-01-19T07:23:04.602Z,90.41
2023-01-19T07:25:31.265Z,90.76
2023-01-19T07:28:00.791Z,91.30
2023-01-19T07:30:27.588Z,91.62
2023-01-19T07:32:54.889Z,91.29
2023-01-19T07:35:21.953Z,92.23
2023-01-19T07:37:49.068Z,91.46
2023-01-19T07:40:15.831Z,90.24
2023-01-19T07:42:48.563Z,90.59
2023-01-19T07:45:17.050Z,90.76
2023-01-19T07:47:51.669Z,91.64
2023-01-19T07:50:21.211Z,91.53
2023-01-19T07:52:53.277Z,91.65
2023-01-19T07:55:21.165Z,91.64
2023-01-19T07:57:51.448Z,91.23
2023-01-19T08:00:21.894Z,91.90
2023-01-19T08:02:51.947Z,91.46
2023-01-19T08:05:19.640Z,91.40
2023-01-19T08:07:47.025Z,91.82
2023-01-19T08:10:14.834Z,92.35
2023-01-19T08:12:42.480Z,91.72
2023-01-19T08:15:10.661Z,90.87
2023-01-19T08:17:37.742Z,91.71
2023-01-19T08:20:04.960Z,92.03
2023-01-19T08:22:32.128Z,91.60
2023-01-19T08:24:59.262Z,91.97
2023-01-19T08:27:25.743Z,91.12
2023-01-19T08:29:54.278Z,91.02
2023-01-19T08:32:20.851Z,90.47
2023-01-19T08:34:47.993Z,91.18
2023-01-19T08:37:14.439Z,91.75
2023-01-19T08:39:40.846Z,91.76
2023-01-19T08:42:07.493Z,91.49
2023-01-19T08:44:33.958Z,91.83
2023-01-19T08:47:00.887Z,92.01
2023-01-19T08:49:27.750Z,92.37
2023-01-19T08:51:55.425Z,92.21
2023-01-19T08:54:23.086Z,92.17
2023-01-19T08:56:49.600Z,92.24
2023-01-19T08:59:16.904Z,91.98
2023-01-19T09:01:43.460Z,91.43
2023-01-19T09:04:10.314Z,91.75
2023-01-19T09:06:37.156Z,91.37
2023-01-19T09:09:03.923Z,92.35
2023-01-19T09:11:30.888Z,91.70
2023-01-19T09:13:57.615Z,91.48
2023-01-19T09:16:26.873Z,91.55
2023-01-19T09:18:54.086Z,91.62
2023-01-19T09:21:21.967Z,92.29
2023-01-19T09:23:49.299Z,92.19
2023-01-19T09:26:16.553Z,92.12
2023-01-19T09:28:43.344Z,92.00
2023-01-19T09:31:09.832Z,91.32
2023-01-19T09:33:37.151Z,92.00
2023-01-19T09:36:03.843Z,91.31
2023-01-19T09:38:32.790Z,91.12
2023-01-19T09:41:00.501Z,91.29
2023-01-19T09:43:37.254Z,91.86
2023-01-19T09:46:12.306Z,91.69
2023-01-19T09:48:53.386Z,91.46
2023-01-19T09:51:23.757Z,90.55
2023-01-19T09:54:13.271Z,89.54
2023-01-19T09:56:40.479Z,91.41
2023-01-19T09:59:26.506Z,91.60
2023-01-19T10:02:02.481Z,90.83
2023-01-19T10:04:31.025Z,91.41
2023-01-19T10:07:20.574Z,90.91
2023-01-19T10:10:06.300Z,90.87
2023-01-19T10:13:11.988Z,88.84
2023-01-19T10:15:52.771Z,90.38
2023-01-19T10:18:51.445Z,91.04
2023-01-19T10:21:23.101Z,89.94
2023-01-19T10:24:01.425Z,90.20
2023-01-19T10:26:39.149Z,89.73
2023-01-19T10:29:08.438Z,89.32
2023-01-19T10:31:38.948Z,89.42
2023-01-19T10:34:05.565Z,89.33
2023-01-19T10:36:39.196Z,89.83
2023-01-19T10:39:06.632Z,89.22
2023-01-19T10:41:50.411Z,88.52
2023-01-19T10:44:28.919Z,89.92
2023-01-19T10:46:58.812Z,90.12
2023-01-19T10:49:27.984Z,88.95
2023-01-19T10:51:56.691Z,90.31
2023-01-19T10:54:24.447Z,90.79
2023-01-19T10:56:54.618Z,90.73
2023-01-19T10:59:36.804Z,90.60
2023-01-19T11:02:28.372Z,89.90
2023-01-19T11:04:57.339Z,89.50
2023-01-19T11:07:26.671Z,89.60
2023-01-19T11:10:19.665Z,90.94
2023-01-19T11:13:08.556Z,90.92
2023-01-19T11:15:52.049Z,90.28
2023-01-19T11:18:26.967Z,88.15
2023-01-19T11:20:56.223Z,89.40
2023-01-19T11:23:29.387Z,88.30
2023-01-19T11:25:59.133Z,88.37
2023-01-19T11:28:32.901Z,88.55
2023-01-19T11:31:02.436Z,87.44
2023-01-19T11:33:45.412Z,87.37
2023-01-19T11:36:26.189Z,86.43
2023-01-19T11:38:55.382Z,86.45
2023-01-19T11:41:35.516Z,87.29
2023-01-19T11:44:25.906Z,87.31
2023-01-19T11:47:00.960Z,86.97
2023-01-19T11:49:41.838Z,85.81
2023-01-19T11:52:20.373Z,83.44
2023-01-19T11:54:59.565Z,86.22
2023-01-19T11:57:27.143Z,86.13
2023-01-19T11:59:54.788Z,86.88
2023-01-19T12:02:31.953Z,87.48
2023-01-19T12:05:04.525Z,85.32
2023-01-19T12:07:35.944Z,82.99
2023-01-19T12:10:27.987Z,84.76
2023-01-19T12:12:56.501Z,85.18
2023-01-19T12:15:38.423Z,86.77
2023-01-19T12:18:08.393Z,85.79
2023-01-19T12:20:40.250Z,84.74
2023-01-19T12:23:13.167Z,84.85
2023-01-19T12:25:54.858Z,83.52
2023-01-19T12:28:36.570Z,84.74
2023-01-19T12:31:04.137Z,83.57
2023-01-19T12:33:39.894Z,80.55
2023-01-19T12:36:32.089Z,79.67
2023-01-19T12:39:14.886Z,80.00
2023-01-19T12:41:42.784Z,80.81
2023-01-19T12:44:12.152Z,80.02
2023-01-19T12:46:43.756Z,77.41
2023-01-19T12:49:20.818Z,79.06
2023-01-19T12:51:48.292Z,80.56
2023-01-19T12:54:32.666Z,81.56
2023-01-19T12:57:08.166Z,82.13
2023-01-19T12:59:37.277Z,81.74
2023-01-19T13:02:47.632Z,81.36
2023-01-19T13:05:16.521Z,78.16
2023-01-19T13:08:01.638Z,75.98
2023-01-19T13:10:59.020Z,76.32
2023-01-19T13:13:33.375Z,72.93
2023-01-19T13:16:20.175Z,74.09
2023-01-19T13:18:53.039Z,74.70
2023-01-19T13:21:33.090Z,73.42
2023-01-19T13:24:05.847Z,74.87
2023-01-19T13:26:39.113Z,74.85
2023-01-19T13:29:15.594Z,74.16
2023-01-19T13:31:44.672Z,73.22
2023-01-19T13:34:18.700Z,73.15
2023-01-19T13:36:49.841Z,72.84
2023-01-19T13:39:27.129Z,72.95
2023-01-19T13:41:59.190Z,73.70
2023-01-19T13:44:28.730Z,73.92
2023-01-19T13:46:57.419Z,73.70
2023-01-19T13:49:35.092Z,74.54
2023-01-19T13:52:04.623Z,72.80
2023-01-19T13:54:31.623Z,74.48
2023-01-19T13:56:58.420Z,73.80
2023-01-19T13:59:25.112Z,74.58
2023-01-19T14:01:54.147Z,75.81
2023-01-19T14:04:33.074Z,73.00
2023-01-19T14:07:04.117Z,72.68
2023-01-19T14:09:30.951Z,73.08
2023-01-19T14:12:17.399Z,74.37
2023-01-19T14:14:47.153Z,75.66
2023-01-19T14:17:30.135Z,74.42
2023-01-19T14:19:58.558Z,74.74
2023-01-19T14:22:45.285Z,74.83
2023-01-19T14:25:32.928Z,76.05
2023-01-19T14:28:28.831Z,75.70
2023-01-19T14:30:55.328Z,76.36
2023-01-19T14:33:42.424Z,77.13
2023-01-19T14:36:25.136Z,75.94
2023-01-19T14:38:53.820Z,77.53
2023-01-19T14:41:35.161Z,74.92
2023-01-19T14:44:03.122Z,75.93
2023-01-19T14:46:30.202Z,76.00
2023-01-19T14:49:02.947Z,75.90
2023-01-19T14:51:31.248Z,75.15
2023-01-19T14:54:01.475Z,74.95
2023-01-19T14:56:30.467Z,74.78
2023-01-19T14:58:58.719Z,75.36
2023-01-19T15:01:30.827Z,75.74
2023-01-19T15:03:58.383Z,76.67
2023-01-19T15:06:26.188Z,75.49
2023-01-19T15:08:54.145Z,77.49
2023-01-19T15:11:29.037Z,73.44
2023-01-19T15:13:57.996Z,77.34
2023-01-19T15:16:26.691Z,75.78
2023-01-19T15:18:53.290Z,73.94
2023-01-19T15:21:23.569Z,76.34
2023-01-19T15:23:50.434Z,77.24
2023-01-19T15:26:19.713Z,74.21
2023-01-19T15:28:49.069Z,76.35
2023-01-19T15:31:21.965Z,75.78
2023-01-19T15:33:48.834Z,75.09
2023-01-19T15:36:19.845Z,77.05
2023-01-19T15:38:47.686Z,75.82
2023-01-19T15:41:18.843Z,77.81
2023-01-19T15:43:46.304Z,76.59
2023-01-19T15:46:15.798Z,77.83
2023-01-19T15:48:42.521Z,76.45
2023-01-19T15:51:14.600Z,76.88
2023-01-19T15:53:43.246Z,76.99
2023-01-19T15:56:18.183Z,76.70
2023-01-19T15:58:45.700Z,76.83
2023-01-19T16:01:15.345Z,80.09
2023-01-19T16:03:43.032Z,80.05
2023-01-19T16:06:09.732Z,79.84
2023-01-19T16:08:37.841Z,79.09
2023-01-19T16:11:09.957Z,79.16
2023-01-19T16:13:37.166Z,81.03
2023-01-19T16:16:13.588Z,82.36
2023-01-19T16:18:40.646Z,83.79
2023-01-19T16:21:07.221Z,82.06
2023-01-19T16:23:34.370Z,83.72
2023-01-19T16:26:07.710Z,82.50
2023-01-19T16:28:37.703Z,83.14
2023-01-19T16:31:04.665Z,84.87
2023-01-19T16:33:31.373Z,84.40
2023-01-19T16:35:57.899Z,84.30
2023-01-19T16:38:24.816Z,85.33
2023-01-19T16:40:51.322Z,84.43
2023-01-19T16:43:18.539Z,85.01
2023-01-19T16:46:02.701Z,84.30
2023-01-19T16:48:30.663Z,85.02
2023-01-19T16:51:05.778Z,83.28
2023-01-19T16:53:37.182Z,84.16
2023-01-19T16:56:12.862Z,85.33
2023-01-19T16:58:40.348Z,85.78
2023-01-19T17:01:17.786Z,86.84
2023-01-19T17:03:46.473Z,86.93
2023-01-19T17:06:16.141Z,86.65
2023-01-19T17:08:42.925Z,84.13
2023-01-19T17:11:20.551Z,85.55
2023-01-19T17:14:00.385Z,85.85
2023-01-19T17:16:30.306Z,85.47
2023-01-19T17:19:03.726Z,85.45
2023-01-19T17:21:33.081Z,86.06
2023-01-19T17:24:01.232Z,87.57
2023-01-19T17:26:30.764Z,87.02
2023-01-19T17:29:09.524Z,86.21
2023-01-19T17:31:37.343Z,85.76
2023-01-19T17:34:09.789Z,86.47
2023-01-19T17:36:38.007Z,86.79
2023-01-19T17:39:07.888Z,87.55
2023-01-19T17:41:35.674Z,87.01
2023-01-19T17:44:03.109Z,88.34
2023-01-19T17:46:30.727Z,86.65
2023-01-19T17:49:01.565Z,84.89
2023-01-19T17:51:29.880Z,86.00
2023-01-19T17:53:57.565Z,86.06
2023-01-19T17:56:29.275Z,82.20
2023-01-19T17:58:56.744Z,81.49
2023-01-19T18:01:28.641Z,83.26
2023-01-19T18:03:56.064Z,82.93
2023-01-19T18:06:22.968Z,84.37
2023-01-19T18:08:50.737Z,83.65
2023-01-19T18:11:19.767Z,82.83
2023-01-19T18:13:48.289Z,84.69
2023-01-19T18:16:19.176Z,84.55
2023-01-19T18:18:46.208Z,83.25
2023-01-19T18:21:14.228Z,84.68
2023-01-19T18:23:45.474Z,84.41
2023-01-19T18:26:15.165Z,86.57
2023-01-19T18:28:41.954Z,83.96
2023-01-19T18:31:10.946Z,83.55
2023-01-19T18:33:39.035Z,84.19
2023-01-19T18:36:06.644Z,85.58
2023-01-19T18:38:34.294Z,84.30
2023-01-19T18:41:01.684Z,86.18
2023-01-19T18:43:29.076Z,86.24
2023-01-19T18:45:55.714Z,86.84
2023-01-19T18:48:22.719Z,84.76
2023-01-19T18:50:49.414Z,85.35
2023-01-19T18:53:16.824Z,83.61
2023-01-19T18:55:56.967Z,84.25
2023-01-19T18:58:24.143Z,83.71
2023-01-19T19:00:51.101Z,84.79
2023-01-19T19:03:17.612Z,85.34
2023-01-19T19:05:44.261Z,85.10
2023-01-19T19:08:18.633Z,84.66
2023-01-19T19:10:46.203Z,84.18
2023-01-19T19:13:15.243Z,83.10
2023-01-19T19:15:41.829Z,83.55
2023-01-19T19:18:08.918Z,84.32
2023-01-19T19:20:39.375Z,82.92
2023-01-19T19:23:06.315Z,85.10
2023-01-19T19:25:34.035Z,85.47
2023-01-19T19:28:01.377Z,84.98
2023-01-19T19:30:28.232Z,85.19
2023-01-19T19:32:56.349Z,86.40
2023-01-19T19:35:23.629Z,86.82
2023-01-19T19:37:51.335Z,85.39
2023-01-19T19:40:17.943Z,85.88
2023-01-19T19:42:45.128Z,86.31
2023-01-19T19:45:12.275Z,86.69
2023-01-19T19:47:38.775Z,87.52
2023-01-19T19:50:05.881Z,87.70
2023-01-19T19:52:38.240Z,88.59
2023-01-19T19:55:06.576Z,89.50
2023-01-19T19:57:33.859Z,89.85
2023-01-19T20:00:00.562Z,87.90
2023-01-19T20:02:27.425Z,89.14
2023-01-19T20:04:54.122Z,87.96
2023-01-19T20:07:20.637Z,88.06
2023-01-19T20:09:47.520Z,88.98
2023-01-19T20:12:14.359Z,88.87
2023-01-19T20:14:40.804Z,88.73
2023-01-19T20:17:07.433Z,88.65
2023-01-19T20:19:33.870Z,88.43
2023-01-19T20:22:00.660Z,89.00
2023-01-19T20:24:27.526Z,89.34
2023-01-19T20:26:56.172Z,89.72
2023-01-19T20:29:23.116Z,88.56
2023-01-19T20:31:54.021Z,88.64
2023-01-19T20:34:23.196Z,87.87
2023-01-19T20:36:51.507Z,88.89
2023-01-19T20:39:19.969Z,87.39
2023-01-19T20:41:49.019Z,88.03
2023-01-19T20:44:20.158Z,87.62
2023-01-19T20:46:46.993Z,86.32
2023-01-19T20:49:14.132Z,86.29
2023-01-19T20:51:45.018Z,88.09
2023-01-19T20:54:13.431Z,87.80
2023-01-19T20:56:41.506Z,88.05
2023-01-19T20:59:09.967Z,87.42
2023-01-19T21:01:36.723Z,87.78
2023-01-19T21:04:03.885Z,87.94
2023-01-19T21:06:31.152Z,86.82
2023-01-19T21:08:57.990Z,87.38
2023-01-19T21:11:24.894Z,87.44
2023-01-19T21:13:55.554Z,88.65
2023-01-19T21:16:23.997Z,88.39
2023-01-19T21:18:51.711Z,87.84
2023-01-19T21:21:29.756Z,87.50
2023-01-19T21:23:58.925Z,86.93
2023-01-19T21:26:25.957Z,88.08
2023-01-19T21:28:52.731Z,87.65
2023-01-19T21:31:21.205Z,89.29
2023-01-19T21:33:49.181Z,89.30
2023-01-19T21:36:15.712Z,89.83
2023-01-19T21:38:42.410Z,89.54
2023-01-19T21:41:12.516Z,88.63
2023-01-19T21:43:41.521Z,89.04
2023-01-19T21:46:14.267Z,88.91
2023-01-19T21:48:41.714Z,88.46
2023-01-19T21:51:09.292Z,88.76
2023-01-19T21:53:35.871Z,88.61
2023-01-19T21:56:02.374Z,88.55
2023-01-19T21:58:29.522Z,88.75
2023-01-19T22:01:00.971Z,89.33
2023-01-19T22:03:28.962Z,88.94
2023-01-19T22:05:58.333Z,88.39
2023-01-19T22:08:24.999Z,88.30
2023-01-19T22:10:51.465Z,87.10
2023-01-19T22:13:18.228Z,86.85
2023-01-19T22:15:47.228Z,88.82
2023-01-19T22:18:13.665Z,89.04
2023-01-19T22:20:40.227Z,88.20
2023-01-19T22:23:06.698Z,87.89
2023-01-19T22:25:33.784Z,88.08
2023-01-19T22:28:00.591Z,88.74
2023-01-19T22:30:27.745Z,89.23
2023-01-19T22:32:54.524Z,88.75
2023-01-19T22:35:21.234Z,86.95
2023-01-19T22:37:48.167Z,88.14
2023-01-19T22:40:15.084Z,87.19
2023-01-19T22:42:45.804Z,87.95
2023-01-19T22:45:12.801Z,88.12
2023-01-19T22:47:39.421Z,88.53
2023-01-19T22:50:06.521Z,87.86
2023-01-19T22:52:34.048Z,88.08
2023-01-19T22:55:00.714Z,87.99
2023-01-19T22:57:27.456Z,87.63
2023-01-19T22:59:53.926Z,87.24
2023-01-19T23:02:21.170Z,87.33
2023-01-19T23:04:48.169Z,87.66
2023-01-19T23:07:15.027Z,87.89
2023-01-19T23:09:41.376Z,88.40
2023-01-19T23:12:08.096Z,87.95
2023-01-19T23:14:36.064Z,88.56
2023-01-19T23:17:02.804Z,88.00
2023-01-19T23:19:29.281Z,89.10
2023-01-19T23:21:56.064Z,89.24
2023-01-19T23:24:22.878Z,88.24
2023-01-19T23:26:50.614Z,88.65
2023-01-19T23:29:17.930Z,89.36
2023-01-19T23:31:47.728Z,89.45
2023-01-19T23:34:15.430Z,88.90
2023-01-19T23:36:43.006Z,90.02
2023-01-19T23:39:18.641Z,88.77
2023-01-19T23:41:45.777Z,89.70
2023-01-19T23:44:13.009Z,88.80
2023-01-19T23:46:39.896Z,90.13
2023-01-19T23:49:06.637Z,90.13
2023-01-19T23:51:34.812Z,90.22
2023-01-19T23:54:01.594Z,90.39
2023-01-19T23:56:34.203Z,90.49
2023-01-19T23:59:09.586Z,90.45
